createdAt,value
2023-05-13T00:00:18.212Z,100727.66
2023-05-13T00:02:45.152Z,100722.75
2023-05-13T00:05:12.395Z,100720.92
2023-05-13T00:07:39.216Z,100725.41
2023-05-13T00:10:06.961Z,100723.85
2023-05-13T00:12:33.932Z,100720.90
2023-05-13T00:15:00.825Z,100728.26
2023-05-13T00:17:27.642Z,100726.58
2023-05-13T00:19:54.519Z,100730.23
2023-05-13T00:22:21.320Z,100736.16
2023-05-13T00:24:48.113Z,100736.06
2023-05-13T00:27:14.922Z,100734.71
2023-05-13T00:29:42.020Z,100737.23
2023-05-13T00:32:08.787Z,100735.13
2023-05-13T00:34:35.631Z,100733.53
2023-05-13T00:37:02.556Z,100737.98
2023-05-13T00:39:29.804Z,100737.26
2023-05-13T00:41:56.731Z,100741.52
2023-05-13T00:44:23.830Z,100739.93
2023-05-13T00:46:50.623Z,100740.81
2023-05-13T00:49:17.417Z,100741.38
2023-05-13T00:51:44.326Z,100746.01
2023-05-13T00:54:11.829Z,100743.70
2023-05-13T00:56:39.193Z,100745.13
2023-05-13T00:59:06.057Z,100742.85
2023-05-13T01:01:47.890Z,100741.06
2023-05-13T01:04:18.141Z,100737.38
2023-05-13T01:06:54.168Z,100741.69
2023-05-13T01:09:46.172Z,100740.88
2023-05-13T01:12:19.953Z,100738.83
2023-05-13T01:14:54.422Z,100734.10
2023-05-13T01:17:26.303Z,100732.34
2023-05-13T01:19:55.602Z,100726.66
2023-05-13T01:22:22.547Z,100730.39
2023-05-13T01:24:50.665Z,100730.43
2023-05-13T01:27:18.184Z,100731.91
2023-05-13T01:29:45.701Z,100737.11
2023-05-13T01:32:13.331Z,100740.55
2023-05-13T01:34:40.452Z,100735.27
2023-05-13T01:37:07.263Z,100737.61
2023-05-13T01:39:34.651Z,100737.84
2023-05-13T01:42:03.815Z,100733.45
2023-05-13T01:44:31.529Z,100738.29
2023-05-13T01:46:59.477Z,100737.25
2023-05-13T01:49:27.064Z,100741.17
2023-05-13T01:51:53.874Z,100741.20
2023-05-13T01:54:20.760Z,100741.26
2023-05-13T01:56:50.948Z,100742.48
2023-05-13T01:59:17.980Z,100741.95
2023-05-13T02:01:45.895Z,100743.71
2023-05-13T02:04:12.887Z,100743.71
2023-05-13T02:06:40.418Z,100742.14
2023-05-13T02:09:08.361Z,100750.31
2023-05-13T02:11:38.313Z,100751.40
2023-05-13T02:14:05.218Z,100749.48
2023-05-13T02:16:34.624Z,100752.33
2023-05-13T02:19:05.685Z,100755.88
2023-05-13T02:21:32.811Z,100751.46
2023-05-13T02:23:59.595Z,100755.19
2023-05-13T02:26:28.675Z,100755.69
2023-05-13T02:28:55.560Z,100758.50
2023-05-13T02:31:22.598Z,100760.34
2023-05-13T02:33:49.773Z,100754.54
2023-05-13T02:36:16.700Z,100759.68
2023-05-13T02:38:44.062Z,100758.27
2023-05-13T02:41:11.510Z,100753.62
2023-05-13T02:43:38.291Z,100759.23
2023-05-13T02:46:05.257Z,100759.81
2023-05-13T02:48:32.610Z,100758.21
2023-05-13T02:51:00.867Z,100762.02
2023-05-13T02:53:28.370Z,100760.77
2023-05-13T02:55:59.584Z,100759.30
2023-05-13T02:58:26.484Z,100757.91
2023-05-13T03:00:53.428Z,100760.42
2023-05-13T03:03:23.038Z,100758.36
2023-05-13T03:05:49.985Z,100755.86
2023-05-13T03:08:16.850Z,100754.02
2023-05-13T03:10:43.724Z,100754.78
2023-05-13T03:13:10.669Z,100763.69
2023-05-13T03:15:37.642Z,100761.21
2023-05-13T03:18:04.737Z,100757.63
2023-05-13T03:20:31.786Z,100752.17
2023-05-13T03:22:59.612Z,100753.08
2023-05-13T03:25:26.491Z,100756.49
2023-05-13T03:27:56.464Z,100756.10
2023-05-13T03:30:24.824Z,100755.83
2023-05-13T03:32:58.216Z,100757.46
2023-05-13T03:35:25.398Z,100753.77
2023-05-13T03:37:52.753Z,100757.48
2023-05-13T03:40:20.275Z,100759.32
2023-05-13T03:42:48.155Z,100761.96
2023-05-13T03:45:15.103Z,100756.45
2023-05-13T03:47:42.391Z,100761.76
2023-05-13T03:50:12.486Z,100758.73
2023-05-13T03:52:43.964Z,100762.24
2023-05-13T03:55:14.945Z,100764.83
2023-05-13T03:57:45.167Z,100766.77
2023-05-13T04:00:13.214Z,100770.52
2023-05-13T04:02:43.043Z,100771.00
2023-05-13T04:05:11.129Z,100766.48
2023-05-13T04:07:38.131Z,100771.02
2023-05-13T04:10:06.056Z,100766.44
2023-05-13T04:12:33.576Z,100764.69
2023-05-13T04:15:00.914Z,100762.99
2023-05-13T04:17:28.032Z,100762.20
2023-05-13T04:19:55.095Z,100762.65
2023-05-13T04:22:22.022Z,100765.73
2023-05-13T04:24:52.211Z,100766.91
2023-05-13T04:27:19.010Z,100763.25
2023-05-13T04:29:47.232Z,100769.60
2023-05-13T04:32:17.946Z,100774.24
2023-05-13T04:34:44.789Z,100771.45
2023-05-13T04:37:11.616Z,100774.38
2023-05-13T04:39:38.757Z,100766.13
2023-05-13T04:42:06.356Z,100766.41
2023-05-13T04:44:33.864Z,100768.79
2023-05-13T04:47:01.036Z,100765.31
2023-05-13T04:49:27.983Z,100765.86
2023-05-13T04:51:55.589Z,100761.45
2023-05-13T04:54:23.804Z,100764.95
2023-05-13T04:56:51.242Z,100757.30
2023-05-13T04:59:18.223Z,100758.23
2023-05-13T05:01:45.301Z,100765.16
2023-05-13T05:04:13.010Z,100759.11
2023-05-13T05:06:40.887Z,100758.36
2023-05-13T05:09:07.999Z,100761.71
2023-05-13T05:11:35.095Z,100757.64
2023-05-13T05:14:01.897Z,100757.10
2023-05-13T05:16:28.706Z,100756.13
2023-05-13T05:18:57.738Z,100752.55
2023-05-13T05:21:24.857Z,100754.77
2023-05-13T05:23:51.771Z,100754.23
2023-05-13T05:26:19.184Z,100755.77
2023-05-13T05:28:47.119Z,100755.11
2023-05-13T05:31:16.132Z,100752.43
2023-05-13T05:33:43.571Z,100753.29
2023-05-13T05:36:10.485Z,100756.22
2023-05-13T05:38:37.803Z,100755.60
2023-05-13T05:41:05.216Z,100753.41
2023-05-13T05:43:32.012Z,100751.66
2023-05-13T05:45:58.861Z,100748.04
2023-05-13T05:48:25.835Z,100749.27
2023-05-13T05:50:53.211Z,100749.03
2023-05-13T05:53:26.380Z,100753.35
2023-05-13T05:55:53.501Z,100757.48
2023-05-13T05:58:21.224Z,100753.27
2023-05-13T06:00:48.632Z,100757.61
2023-05-13T06:03:15.816Z,100753.78
2023-05-13T06:05:42.938Z,100751.52
2023-05-13T06:08:09.832Z,100749.77
2023-05-13T06:10:36.846Z,100749.50
2023-05-13T06:13:04.341Z,100747.94
2023-05-13T06:15:31.151Z,100749.55
2023-05-13T06:17:58.139Z,100747.67
2023-05-13T06:20:25.673Z,100752.30
2023-05-13T06:22:52.473Z,100752.27
2023-05-13T06:25:19.321Z,100752.21
2023-05-13T06:27:46.161Z,100750.75
2023-05-13T06:30:13.197Z,100749.77
2023-05-13T06:32:53.594Z,100746.91
2023-05-13T06:35:27.648Z,100749.27
2023-05-13T06:37:55.012Z,100754.71
2023-05-13T06:40:22.338Z,100754.65
2023-05-13T06:42:49.562Z,100752.13
2023-05-13T06:45:23.617Z,100752.73
2023-05-13T06:47:51.759Z,100753.61
2023-05-13T06:50:19.726Z,100750.77
2023-05-13T06:52:47.343Z,100751.53
2023-05-13T06:55:14.225Z,100746.98
2023-05-13T06:57:43.360Z,100752.23
2023-05-13T07:00:11.412Z,100749.16
2023-05-13T07:02:38.251Z,100753.94
2023-05-13T07:05:05.956Z,100750.85
2023-05-13T07:07:32.814Z,100759.31
2023-05-13T07:09:59.734Z,100758.43
2023-05-13T07:12:26.963Z,100759.34
2023-05-13T07:14:53.740Z,100761.51
2023-05-13T07:17:20.782Z,100756.98
2023-05-13T07:19:47.846Z,100751.98
2023-05-13T07:22:14.635Z,100749.98
2023-05-13T07:24:41.946Z,100751.58
2023-05-13T07:27:08.754Z,100742.48
2023-05-13T07:29:35.568Z,100747.14
2023-05-13T07:32:06.382Z,100750.55
2023-05-13T07:34:33.204Z,100750.64
2023-05-13T07:37:00.052Z,100748.20
2023-05-13T07:39:27.566Z,100746.77
2023-05-13T07:41:55.119Z,100755.38
2023-05-13T07:44:22.243Z,100754.95
2023-05-13T07:46:49.485Z,100756.55
2023-05-13T07:49:16.437Z,100754.70
2023-05-13T07:51:43.234Z,100755.73
2023-05-13T07:54:10.332Z,100757.14
2023-05-13T07:56:38.358Z,100749.77
2023-05-13T07:59:05.442Z,100757.05
2023-05-13T08:01:32.279Z,100756.15
2023-05-13T08:03:59.316Z,100757.98
2023-05-13T08:06:26.285Z,100765.48
2023-05-13T08:08:53.154Z,100767.48
2023-05-13T08:11:20.055Z,100761.15
2023-05-13T08:13:46.845Z,100758.67
2023-05-13T08:16:13.707Z,100754.02
2023-05-13T08:18:40.571Z,100756.20
2023-05-13T08:21:07.684Z,100741.70
2023-05-13T08:23:44.662Z,100746.44
2023-05-13T08:26:13.034Z,100753.83
2023-05-13T08:28:39.880Z,100747.46
2023-05-13T08:31:06.779Z,100745.54
2023-05-13T08:33:34.484Z,100742.48
2023-05-13T08:36:01.719Z,100742.84
2023-05-13T08:38:28.506Z,100737.89
2023-05-13T08:40:55.423Z,100740.59
2023-05-13T08:43:22.686Z,100737.89
2023-05-13T08:45:50.902Z,100737.74
2023-05-13T08:48:17.744Z,100734.44
2023-05-13T08:50:44.741Z,100730.77
2023-05-13T08:53:12.253Z,100725.61
2023-05-13T08:55:40.614Z,100721.66
2023-05-13T08:58:08.343Z,100714.91
2023-05-13T09:00:35.410Z,100721.58
2023-05-13T09:03:02.518Z,100717.27
2023-05-13T09:05:29.690Z,100709.48
2023-05-13T09:07:57.356Z,100710.86
2023-05-13T09:10:24.261Z,100710.66
2023-05-13T09:12:54.941Z,100700.52
2023-05-13T09:15:26.323Z,100709.86
2023-05-13T09:18:01.720Z,100701.16
2023-05-13T09:20:28.707Z,100692.87
2023-05-13T09:22:59.415Z,100696.64
2023-05-13T09:25:26.397Z,100699.69
2023-05-13T09:27:57.860Z,100698.27
2023-05-13T09:30:29.468Z,100695.30
2023-05-13T09:33:10.650Z,100691.34
2023-05-13T09:35:41.089Z,100682.51
2023-05-13T09:38:21.586Z,100675.25
2023-05-13T09:40:52.587Z,100673.55
2023-05-13T09:43:27.043Z,100668.29
2023-05-13T09:45:58.506Z,100673.94
2023-05-13T09:48:26.704Z,100667.79
2023-05-13T09:50:53.834Z,100662.30
2023-05-13T09:53:21.399Z,100657.70
2023-05-13T09:55:49.314Z,100652.73
2023-05-13T09:58:16.134Z,100649.13
2023-05-13T10:03:24.962Z,100660.39
2023-05-13T10:05:51.904Z,100650.41
2023-05-13T10:08:18.898Z,100652.27
2023-05-13T10:10:46.288Z,100652.48
2023-05-13T10:13:18.061Z,100645.48
2023-05-13T10:15:51.831Z,100644.60
2023-05-13T10:18:19.808Z,100639.66
2023-05-13T10:20:47.177Z,100647.29
2023-05-13T10:23:14.616Z,100644.94
2023-05-13T10:25:42.204Z,100640.36
2023-05-13T10:28:08.997Z,100642.89
2023-05-13T10:30:35.990Z,100644.16
2023-05-13T10:33:03.256Z,100640.64
2023-05-13T10:35:34.636Z,100630.35
2023-05-13T10:38:30.703Z,100628.33
2023-05-13T10:41:26.984Z,100626.79
2023-05-13T10:43:58.504Z,100625.53
2023-05-13T10:46:25.559Z,100626.27
2023-05-13T10:48:56.685Z,100623.04
2023-05-13T10:51:24.665Z,100621.70
2023-05-13T10:53:55.798Z,100619.81
2023-05-13T10:56:24.698Z,100619.33
2023-05-13T10:58:59.405Z,100618.91
2023-05-13T11:01:29.830Z,100615.13
2023-05-13T11:04:04.721Z,100611.19
2023-05-13T11:06:36.874Z,100612.38
2023-05-13T11:09:14.580Z,100618.23
2023-05-13T11:11:41.677Z,100616.16
2023-05-13T11:14:18.612Z,100607.27
2023-05-13T11:16:57.014Z,100602.27
2023-05-13T11:19:27.425Z,100599.14
2023-05-13T11:21:59.146Z,100603.79
2023-05-13T11:24:26.757Z,100597.58
2023-05-13T11:26:59.170Z,100592.23
2023-05-13T11:29:29.968Z,100590.31
2023-05-13T11:32:00.313Z,100589.48
2023-05-13T11:34:28.374Z,100591.49
2023-05-13T11:37:08.824Z,100592.33
2023-05-13T11:39:36.642Z,100592.48
2023-05-13T11:42:11.570Z,100589.65
2023-05-13T11:44:45.804Z,100589.16
2023-05-13T11:47:13.091Z,100590.52
2023-05-13T11:49:41.903Z,100595.00
2023-05-13T11:52:18.885Z,100594.02
2023-05-13T11:54:58.200Z,100590.30
2023-05-13T11:57:29.044Z,100593.02
2023-05-13T12:00:00.674Z,100588.30
2023-05-13T12:02:29.347Z,100589.90
2023-05-13T12:04:59.711Z,100589.22
2023-05-13T12:07:27.419Z,100589.92
2023-05-13T12:09:57.618Z,100589.12
2023-05-13T12:12:24.651Z,100581.62
2023-05-13T12:14:51.545Z,100582.69
2023-05-13T12:17:19.135Z,100579.36
2023-05-13T12:20:05.894Z,100578.44
2023-05-13T12:22:36.609Z,100577.90
2023-05-13T12:25:38.397Z,100575.91
2023-05-13T12:28:21.960Z,100571.55
2023-05-13T12:30:58.896Z,100566.86
2023-05-13T12:33:33.686Z,100564.60
2023-05-13T12:36:20.744Z,100564.59
2023-05-13T12:39:01.200Z,100561.77
2023-05-13T12:41:33.914Z,100557.80
2023-05-13T12:44:03.026Z,100558.70
2023-05-13T12:46:30.178Z,100558.06
2023-05-13T12:49:01.892Z,100555.30
2023-05-13T12:51:29.765Z,100553.00
2023-05-13T12:53:58.143Z,100552.33
2023-05-13T12:56:25.496Z,100549.29
2023-05-13T12:58:55.931Z,100552.38
2023-05-13T13:01:22.983Z,100551.64
2023-05-13T13:03:50.176Z,100547.60
2023-05-13T13:06:17.903Z,100546.75
2023-05-13T13:08:44.755Z,100546.58
2023-05-13T13:11:15.090Z,100544.63
2023-05-13T13:13:42.023Z,100546.75
2023-05-13T13:16:09.665Z,100546.56
2023-05-13T13:18:36.744Z,100547.95
2023-05-13T13:21:05.411Z,100545.91
2023-05-13T13:23:32.283Z,100551.33
2023-05-13T13:25:59.510Z,100545.10
2023-05-13T13:28:27.370Z,100547.35
2023-05-13T13:30:54.325Z,100549.36
2023-05-13T13:33:22.579Z,100543.78
2023-05-13T13:35:49.574Z,100547.34
2023-05-13T13:38:16.696Z,100542.61
2023-05-13T13:40:43.673Z,100542.55
2023-05-13T13:43:10.560Z,100540.27
2023-05-13T13:45:37.367Z,100536.65
2023-05-13T13:48:04.832Z,100535.72
2023-05-13T13:50:31.723Z,100533.36
2023-05-13T13:52:58.489Z,100539.84
2023-05-13T13:55:26.509Z,100533.93
2023-05-13T13:57:53.510Z,100534.92
2023-05-13T14:00:20.687Z,100534.09
2023-05-13T14:02:48.652Z,100534.54
2023-05-13T14:05:16.274Z,100536.83
2023-05-13T14:07:43.153Z,100533.77
2023-05-13T14:10:10.576Z,100530.05
2023-05-13T14:12:38.557Z,100533.05
2023-05-13T14:15:06.673Z,100531.69
2023-05-13T14:17:33.828Z,100530.52
2023-05-13T14:20:00.884Z,100528.30
2023-05-13T14:22:27.767Z,100529.36
2023-05-13T14:24:54.675Z,100531.80
2023-05-13T14:27:21.968Z,100530.46
2023-05-13T14:29:49.230Z,100528.55
2023-05-13T14:32:16.386Z,100530.80
2023-05-13T14:34:43.273Z,100524.58
2023-05-13T14:37:10.093Z,100528.86
2023-05-13T14:39:37.182Z,100529.55
2023-05-13T14:42:04.583Z,100530.03
2023-05-13T14:44:32.150Z,100531.59
2023-05-13T14:46:59.126Z,100528.23
2023-05-13T14:49:25.945Z,100523.10
2023-05-13T14:51:52.807Z,100524.00
2023-05-13T14:54:19.599Z,100525.11
2023-05-13T14:56:46.588Z,100524.27
2023-05-13T14:59:13.437Z,100532.41
2023-05-13T15:01:40.590Z,100530.06
2023-05-13T15:04:07.535Z,100532.89
2023-05-13T15:06:34.416Z,100535.96
2023-05-13T15:09:01.255Z,100533.29
2023-05-13T15:11:28.443Z,100533.66
2023-05-13T15:13:55.417Z,100540.76
2023-05-13T15:16:22.370Z,100543.30
2023-05-13T15:18:50.465Z,100539.23
2023-05-13T15:21:17.775Z,100542.05
2023-05-13T15:23:44.923Z,100539.18
2023-05-13T15:26:11.973Z,100538.73
2023-05-13T15:28:38.772Z,100541.11
2023-05-13T15:31:06.126Z,100540.98
2023-05-13T15:33:33.146Z,100539.60
2023-05-13T15:36:01.383Z,100540.92
2023-05-13T15:38:28.326Z,100536.65
2023-05-13T15:40:55.131Z,100529.42
2023-05-13T15:43:21.937Z,100530.52
2023-05-13T15:45:50.396Z,100532.77
2023-05-13T15:48:17.602Z,100531.73
2023-05-13T15:50:44.804Z,100529.52
2023-05-13T15:53:11.717Z,100530.48
2023-05-13T15:55:39.632Z,100532.44
2023-05-13T15:58:07.195Z,100528.92
2023-05-13T16:00:34.196Z,100531.83
2023-05-13T16:03:01.446Z,100535.53
2023-05-13T16:05:28.457Z,100536.92
2023-05-13T16:07:57.319Z,100537.06
2023-05-13T16:10:24.583Z,100535.50
2023-05-13T16:12:51.665Z,100539.89
2023-05-13T16:15:18.532Z,100534.70
2023-05-13T16:17:45.468Z,100531.33
2023-05-13T16:20:13.525Z,100530.08
2023-05-13T16:22:40.593Z,100534.13
2023-05-13T16:25:09.157Z,100535.52
2023-05-13T16:27:36.513Z,100536.23
2023-05-13T16:30:04.569Z,100537.11
2023-05-13T16:32:31.471Z,100539.33
2023-05-13T16:34:58.450Z,100536.98
2023-05-13T16:37:25.263Z,100540.27
2023-05-13T16:39:52.154Z,100541.42
2023-05-13T16:42:21.916Z,100543.80
2023-05-13T16:44:48.813Z,100548.08
2023-05-13T16:47:15.632Z,100548.59
2023-05-13T16:49:42.734Z,100550.60
2023-05-13T16:52:09.625Z,100547.20
2023-05-13T16:54:36.541Z,100554.14
2023-05-13T16:57:03.648Z,100550.94
2023-05-13T16:59:30.534Z,100551.11
2023-05-13T17:01:59.419Z,100550.45
2023-05-13T17:04:27.869Z,100548.69
2023-05-13T17:06:55.764Z,100548.66
2023-05-13T17:09:24.508Z,100549.71
2023-05-13T17:11:51.301Z,100550.79
2023-05-13T17:14:18.205Z,100554.27
2023-05-13T17:16:45.066Z,100556.27
2023-05-13T17:19:12.134Z,100561.11
2023-05-13T17:21:39.011Z,100560.25
2023-05-13T17:24:06.524Z,100560.09
2023-05-13T17:26:33.699Z,100562.80
2023-05-13T17:29:01.463Z,100569.63
2023-05-13T17:31:28.384Z,100566.80
2023-05-13T17:33:55.371Z,100567.63
2023-05-13T17:36:22.388Z,100565.75
2023-05-13T17:38:50.132Z,100563.27
2023-05-13T17:41:16.985Z,100565.90
2023-05-13T17:43:43.882Z,100567.65
2023-05-13T17:46:11.418Z,100569.72
2023-05-13T17:48:38.389Z,100569.60
2023-05-13T17:51:05.486Z,100571.02
2023-05-13T17:53:34.501Z,100574.86
2023-05-13T17:56:01.951Z,100579.55
2023-05-13T17:58:28.846Z,100583.56
2023-05-13T18:00:55.674Z,100579.27
2023-05-13T18:03:22.597Z,100581.23
2023-05-13T18:05:49.494Z,100590.23
2023-05-13T18:08:16.300Z,100587.92
2023-05-13T18:10:43.210Z,100592.87
2023-05-13T18:13:11.858Z,100592.21
2023-05-13T18:15:38.851Z,100589.89
2023-05-13T18:18:06.315Z,100597.45
2023-05-13T18:20:33.765Z,100604.84
2023-05-13T18:23:00.885Z,100602.52
2023-05-13T18:25:27.686Z,100606.15
2023-05-13T18:27:54.805Z,100606.41
2023-05-13T18:30:21.902Z,100604.17
2023-05-13T18:32:49.294Z,100608.32
2023-05-13T18:35:16.315Z,100608.30
2023-05-13T18:37:43.321Z,100609.65
2023-05-13T18:40:11.342Z,100614.73
2023-05-13T18:42:38.120Z,100611.59
2023-05-13T18:45:06.190Z,100612.27
2023-05-13T18:47:33.107Z,100612.66
2023-05-13T18:50:00.196Z,100612.50
2023-05-13T18:52:27.170Z,100615.08
2023-05-13T18:54:54.190Z,100615.61
2023-05-13T18:57:21.668Z,100612.75
2023-05-13T18:59:48.798Z,100610.55
2023-05-13T19:02:16.252Z,100616.31
2023-05-13T19:04:43.416Z,100616.42
2023-05-13T19:07:10.299Z,100617.46
2023-05-13T19:09:37.202Z,100615.25
2023-05-13T19:12:04.309Z,100617.58
2023-05-13T19:14:31.304Z,100617.48
2023-05-13T19:16:58.287Z,100620.11
2023-05-13T19:19:25.324Z,100619.68
2023-05-13T19:21:52.211Z,100620.59
2023-05-13T19:24:19.315Z,100625.60
2023-05-13T19:26:46.124Z,100624.42
2023-05-13T19:29:13.010Z,100623.34
2023-05-13T19:31:40.276Z,100624.80
2023-05-13T19:34:07.844Z,100625.56
2023-05-13T19:36:34.836Z,100627.02
2023-05-13T19:39:01.668Z,100630.44
2023-05-13T19:41:28.584Z,100629.38
2023-05-13T19:43:55.529Z,100626.98
2023-05-13T19:46:22.474Z,100624.95
2023-05-13T19:48:49.462Z,100623.61
2023-05-13T19:51:16.433Z,100622.08
2023-05-13T19:53:43.257Z,100621.19
2023-05-13T19:56:10.144Z,100622.19
2023-05-13T19:58:37.077Z,100622.68
2023-05-13T20:01:03.870Z,100614.27
2023-05-13T20:03:31.019Z,100613.35
2023-05-13T20:05:58.062Z,100614.52
2023-05-13T20:08:25.494Z,100616.27
2023-05-13T20:10:52.280Z,100617.61
2023-05-13T20:13:19.090Z,100619.00
2023-05-13T20:15:46.076Z,100619.42
2023-05-13T20:18:12.972Z,100617.05
2023-05-13T20:20:41.700Z,100614.61
2023-05-13T20:23:08.718Z,100614.40
2023-05-13T20:25:36.032Z,100611.65
2023-05-13T20:28:02.986Z,100607.82
2023-05-13T20:30:29.830Z,100601.65
2023-05-13T20:32:56.674Z,100602.52
2023-05-13T20:35:23.627Z,100602.42
2023-05-13T20:37:50.767Z,100603.40
2023-05-13T20:40:17.641Z,100602.31
2023-05-13T20:42:44.698Z,100603.02
2023-05-13T20:45:12.973Z,100604.11
2023-05-13T20:47:39.989Z,100602.15
2023-05-13T20:50:07.976Z,100600.75
2023-05-13T20:52:34.809Z,100602.27
2023-05-13T20:55:01.803Z,100606.48
2023-05-13T20:57:28.629Z,100604.42
2023-05-13T20:59:55.759Z,100601.15
2023-05-13T21:02:22.685Z,100603.60
2023-05-13T21:04:49.621Z,100602.23
2023-05-13T21:07:16.502Z,100605.55
2023-05-13T21:09:43.531Z,100606.02
2023-05-13T21:12:10.517Z,100606.86
2023-05-13T21:14:37.419Z,100605.17
2023-05-13T21:17:04.336Z,100603.90
2023-05-13T21:19:31.230Z,100605.64
2023-05-13T21:21:58.840Z,100601.89
2023-05-13T21:24:25.670Z,100602.10
2023-05-13T21:26:52.543Z,100599.61
2023-05-13T21:29:19.486Z,100596.72
2023-05-13T21:31:47.578Z,100596.39
2023-05-13T21:34:14.484Z,100590.55
2023-05-13T21:36:41.368Z,100587.79
2023-05-13T21:39:10.507Z,100590.87
2023-05-13T21:41:37.851Z,100590.02
2023-05-13T21:44:04.776Z,100594.90
2023-05-13T21:46:31.873Z,100593.84
2023-05-13T21:48:59.820Z,100592.29
2023-05-13T21:51:26.673Z,100598.41
2023-05-13T21:53:53.485Z,100592.17
2023-05-13T21:56:21.223Z,100595.05
2023-05-13T21:58:49.434Z,100593.30
2023-05-13T22:01:16.468Z,100593.00
2023-05-13T22:03:43.448Z,100593.98
2023-05-13T22:06:10.269Z,100589.92
2023-05-13T22:08:37.213Z,100590.56
2023-05-13T22:11:04.162Z,100594.33
2023-05-13T22:13:30.953Z,100595.56
2023-05-13T22:15:57.917Z,100590.41
2023-05-13T22:21:03.781Z,100597.54
2023-05-13T22:23:31.178Z,100591.17
2023-05-13T22:25:57.980Z,100589.64
2023-05-13T22:28:24.875Z,100587.56
2023-05-13T22:30:51.776Z,100581.36
2023-05-13T22:33:19.030Z,100576.64
2023-05-13T22:35:45.991Z,100578.96
2023-05-13T22:38:12.784Z,100577.91
2023-05-13T22:40:39.699Z,100580.51
2023-05-13T22:43:06.597Z,100577.89
2023-05-13T22:45:33.423Z,100573.80
2023-05-13T22:48:00.368Z,100571.68
2023-05-13T22:50:27.391Z,100568.85
2023-05-13T22:52:54.187Z,100571.95
2023-05-13T22:55:21.226Z,100569.33
2023-05-13T22:57:48.105Z,100569.73
2023-05-13T23:00:15.893Z,100571.23
2023-05-13T23:02:42.745Z,100573.44
2023-05-13T23:05:10.058Z,100572.98
2023-05-13T23:07:37.033Z,100578.23
2023-05-13T23:10:04.470Z,100576.52
2023-05-13T23:12:31.353Z,100575.08
2023-05-13T23:14:58.170Z,100573.56
2023-05-13T23:17:25.062Z,100572.33
2023-05-13T23:19:52.106Z,100570.39
2023-05-13T23:22:18.972Z,100570.05
2023-05-13T23:24:45.786Z,100571.30
2023-05-13T23:27:12.671Z,100572.19
2023-05-13T23:29:39.580Z,100568.68
2023-05-13T23:32:07.264Z,100569.63
2023-05-13T23:34:34.274Z,100572.88
2023-05-13T23:37:01.109Z,100576.84
2023-05-13T23:39:27.868Z,100577.80
2023-05-13T23:41:54.678Z,100581.81
2023-05-13T23:44:21.685Z,100583.15
2023-05-13T23:46:48.697Z,100580.54
2023-05-13T23:49:15.576Z,100583.42
2023-05-13T23:51:42.410Z,100580.61
2023-05-13T23:54:09.292Z,100583.55
2023-05-13T23:56:36.077Z,100582.89
2023-05-13T23:59:03.017Z,100587.42
